createdAt,value
2018-11-21T00:00:13.483Z,38.30
2018-11-21T00:04:57.167Z,37.17
2018-11-21T00:09:40.912Z,37.80
2018-11-21T00:14:26.220Z,34.80
2018-11-21T00:19:08.596Z,36.60
2018-11-21T00:23:52.287Z,36.37
2018-11-21T00:28:35.996Z,33.30
2018-11-21T00:33:19.652Z,36.70
2018-11-21T00:38:03.228Z,35.07
2018-11-21T00:42:47.166Z,38.73
2018-11-21T00:47:30.522Z,37.23
2018-11-21T00:52:14.178Z,36.37
2018-11-21T00:56:57.988Z,36.53
2018-11-21T01:01:41.736Z,40.13
2018-11-21T01:06:25.420Z,42.00
2018-11-21T01:11:09.147Z,38.07
2018-11-21T01:15:55.555Z,36.07
2018-11-21T01:20:39.217Z,38.90
2018-11-21T01:25:23.046Z,38.47
2018-11-21T01:30:07.518Z,41.10
2018-11-21T01:34:51.165Z,36.97
2018-11-21T01:39:34.820Z,41.93
2018-11-21T01:44:18.477Z,37.67
2018-11-21T01:49:02.155Z,35.27
2018-11-21T01:53:45.766Z,39.13
2018-11-21T01:58:29.514Z,39.17
2018-11-21T02:03:14.266Z,42.67
2018-11-21T02:07:56.894Z,38.17
2018-11-21T02:12:40.601Z,40.67
2018-11-21T02:17:24.359Z,41.37
2018-11-21T02:22:08.064Z,41.67
2018-11-21T02:26:51.745Z,40.20
2018-11-21T02:31:35.361Z,39.33
2018-11-21T02:36:18.964Z,36.23
2018-11-21T02:41:02.647Z,40.87
2018-11-21T02:45:46.452Z,39.23
2018-11-21T02:50:30.192Z,43.33
2018-11-21T02:55:13.826Z,36.53
2018-11-21T03:00:06.961Z,40.20
2018-11-21T03:04:50.676Z,40.90
2018-11-21T03:09:34.582Z,44.77
2018-11-21T03:14:18.124Z,44.40
2018-11-21T03:19:01.787Z,40.03
2018-11-21T03:23:45.497Z,43.73
2018-11-21T03:28:29.566Z,47.80
2018-11-21T03:33:13.257Z,42.43
2018-11-21T03:37:56.947Z,44.90
2018-11-21T03:42:40.918Z,42.73
2018-11-21T03:47:24.623Z,41.90
2018-11-21T03:52:08.387Z,46.53
2018-11-21T03:56:52.007Z,42.63
2018-11-21T04:01:35.570Z,49.77
2018-11-21T04:06:19.218Z,46.60
2018-11-21T04:11:02.902Z,41.43
2018-11-21T04:15:46.666Z,42.27
2018-11-21T04:20:30.358Z,44.90
2018-11-21T04:25:13.934Z,46.93
2018-11-21T04:29:57.681Z,43.13
2018-11-21T04:34:41.449Z,41.93
2018-11-21T04:39:25.177Z,44.23
2018-11-21T04:44:08.772Z,40.63
2018-11-21T04:48:52.419Z,44.73
2018-11-21T04:53:36.070Z,45.73
2018-11-21T04:58:19.717Z,47.33
2018-11-21T05:03:03.367Z,45.77
2018-11-21T05:07:50.891Z,47.20
2018-11-21T05:12:34.750Z,44.47
2018-11-21T05:17:18.528Z,46.57
2018-11-21T05:22:02.172Z,49.80
2018-11-21T05:26:45.948Z,46.87
2018-11-21T05:31:29.687Z,49.50
2018-11-21T05:36:13.361Z,49.23
2018-11-21T05:40:57.044Z,42.90
2018-11-21T05:45:40.745Z,43.43
2018-11-21T05:50:24.351Z,46.37
2018-11-21T05:55:07.913Z,46.07
2018-11-21T05:59:51.563Z,43.53
2018-11-21T06:04:35.172Z,50.63
2018-11-21T06:09:18.985Z,46.57
2018-11-21T06:14:02.627Z,47.17
2018-11-21T06:18:46.343Z,47.43
2018-11-21T06:23:30.000Z,50.70
2018-11-21T06:28:13.657Z,50.30
2018-11-21T06:32:57.311Z,50.27
2018-11-21T06:37:41.061Z,55.30
2018-11-21T06:42:24.731Z,54.47
2018-11-21T06:47:08.449Z,57.47
2018-11-21T06:51:52.186Z,54.30
2018-11-21T06:56:35.871Z,57.40
2018-11-21T07:01:19.631Z,51.07
2018-11-21T07:06:03.248Z,57.07
2018-11-21T07:10:47.313Z,55.13
2018-11-21T07:15:30.971Z,57.83
2018-11-21T07:20:14.655Z,56.80
2018-11-21T07:24:58.349Z,51.00
2018-11-21T07:29:41.989Z,47.47
2018-11-21T07:34:25.858Z,51.10
2018-11-21T07:39:09.891Z,53.30
2018-11-21T07:43:53.615Z,55.23
2018-11-21T07:48:37.263Z,55.20
2018-11-21T07:53:21.097Z,54.33
2018-11-21T07:58:07.585Z,58.90
2018-11-21T08:02:51.309Z,56.87
2018-11-21T08:07:52.881Z,51.73
2018-11-21T08:13:07.287Z,58.70
2018-11-21T08:18:18.199Z,54.50
2018-11-21T08:23:19.393Z,59.77
2018-11-21T08:28:17.940Z,63.93
2018-11-21T08:33:01.757Z,62.90
2018-11-21T08:37:45.472Z,49.53
2018-11-21T08:42:29.185Z,62.07
2018-11-21T08:47:13.027Z,60.57
2018-11-21T08:51:56.699Z,53.30
2018-11-21T08:56:40.458Z,56.90
2018-11-21T09:01:24.162Z,50.13
2018-11-21T09:06:07.777Z,57.23
2018-11-21T09:10:51.484Z,55.70
2018-11-21T09:15:35.074Z,57.33
2018-11-21T09:20:18.745Z,56.50
2018-11-21T09:25:02.614Z,56.30
2018-11-21T09:29:46.682Z,52.73
2018-11-21T09:34:30.452Z,52.53
2018-11-21T09:39:14.204Z,58.70
2018-11-21T09:43:57.923Z,55.27
2018-11-21T09:48:41.688Z,58.90
2018-11-21T09:53:25.508Z,53.93
2018-11-21T09:58:09.121Z,58.50
2018-11-21T10:03:23.442Z,56.00
2018-11-21T10:08:21.105Z,53.53
2018-11-21T10:13:04.953Z,57.00
2018-11-21T10:17:49.153Z,49.10
2018-11-21T10:22:39.844Z,52.17
2018-11-21T10:27:25.747Z,57.27
2018-11-21T10:32:11.672Z,55.10
2018-11-21T10:36:55.427Z,49.40
2018-11-21T10:41:40.812Z,50.63
2018-11-21T10:46:26.010Z,51.53
2018-11-21T10:51:09.819Z,71.73
2018-11-21T10:55:53.578Z,52.67
2018-11-21T11:00:54.817Z,53.73
2018-11-21T11:06:09.437Z,52.37
2018-11-21T11:11:10.647Z,51.00
2018-11-21T11:16:28.492Z,51.50
2018-11-21T11:21:29.921Z,52.57
2018-11-21T11:26:39.583Z,52.00
2018-11-21T11:31:50.333Z,46.63
2018-11-21T11:36:51.627Z,51.40
2018-11-21T11:42:09.827Z,49.50
2018-11-21T11:47:10.971Z,53.80
2018-11-21T11:52:12.063Z,52.17
2018-11-21T11:57:14.890Z,51.37
2018-11-21T12:02:14.032Z,49.40
2018-11-21T12:07:09.587Z,51.33
2018-11-21T12:12:18.060Z,50.93
2018-11-21T12:17:19.360Z,45.93
2018-11-21T12:22:20.975Z,50.77
2018-11-21T12:27:15.965Z,50.07
2018-11-21T12:32:21.516Z,49.33
2018-11-21T12:37:24.855Z,47.97
2018-11-21T12:42:26.180Z,50.17
2018-11-21T12:47:46.783Z,54.60
2018-11-21T12:52:55.405Z,54.67
2018-11-21T12:57:56.351Z,67.40
2018-11-21T13:03:04.924Z,52.27
2018-11-21T13:08:06.324Z,50.23
2018-11-21T13:13:07.967Z,54.17
2018-11-21T13:18:11.594Z,52.97
2018-11-21T13:23:08.237Z,54.93
2018-11-21T13:28:08.268Z,55.83
2018-11-21T13:33:13.767Z,51.90
2018-11-21T13:38:14.978Z,59.07
2018-11-21T13:43:15.992Z,58.67
2018-11-21T13:48:25.486Z,58.33
2018-11-21T13:53:21.203Z,58.87
2018-11-21T13:58:04.876Z,57.83
2018-11-21T14:02:48.573Z,52.47
2018-11-21T14:07:32.340Z,54.80
2018-11-21T14:12:15.965Z,57.90
2018-11-21T14:16:59.762Z,52.67
2018-11-21T14:21:43.588Z,57.10
2018-11-21T14:26:27.317Z,50.33
2018-11-21T14:31:11.062Z,57.67
2018-11-21T14:35:56.064Z,52.10
2018-11-21T14:40:38.354Z,54.03
2018-11-21T14:45:23.157Z,53.03
2018-11-21T14:50:16.233Z,50.90
2018-11-21T14:54:59.956Z,55.73
2018-11-21T14:59:43.625Z,55.17
2018-11-21T15:04:27.405Z,53.10
2018-11-21T15:09:12.248Z,52.23
2018-11-21T15:13:56.046Z,49.93
2018-11-21T15:18:39.769Z,49.67
2018-11-21T15:23:23.509Z,47.73
2018-11-21T15:28:07.345Z,50.37
2018-11-21T15:32:50.938Z,52.10
2018-11-21T15:37:34.895Z,50.30
2018-11-21T15:42:18.671Z,58.98
2018-11-21T15:47:03.806Z,66.97
2018-11-21T15:51:47.587Z,45.93
2018-11-21T15:56:31.611Z,40.23
2018-11-21T16:01:15.561Z,42.20
2018-11-21T16:05:59.591Z,41.63
2018-11-21T16:10:47.792Z,41.63
2018-11-21T16:15:35.634Z,40.67
2018-11-21T16:20:17.428Z,36.73
2018-11-21T16:25:16.444Z,39.73
2018-11-21T16:30:18.540Z,38.40
2018-11-21T16:34:59.550Z,36.97
2018-11-21T16:39:47.865Z,40.33
2018-11-21T16:44:34.113Z,34.93
2018-11-21T16:49:21.061Z,39.97
2018-11-21T16:54:09.688Z,34.60
2018-11-21T16:58:53.718Z,34.37
2018-11-21T17:03:37.592Z,37.00
2018-11-21T17:08:26.427Z,37.90
2018-11-21T17:13:22.251Z,38.93
2018-11-21T17:18:10.709Z,33.73
2018-11-21T17:23:10.414Z,34.03
2018-11-21T17:27:58.515Z,33.50
2018-11-21T17:32:45.644Z,34.90
2018-11-21T17:37:34.792Z,33.67
2018-11-21T17:42:18.746Z,33.27
2018-11-21T17:47:03.019Z,33.30
2018-11-21T17:51:47.095Z,44.33
2018-11-21T17:56:33.049Z,32.93
2018-11-21T18:01:16.743Z,34.50
2018-11-21T18:06:00.776Z,40.83
2018-11-21T18:10:45.109Z,33.40
2018-11-21T18:15:30.889Z,36.07
2018-11-21T18:20:15.835Z,34.67
2018-11-21T18:25:00.404Z,34.30
2018-11-21T18:29:44.471Z,37.07
2018-11-21T18:34:30.158Z,34.67
2018-11-21T18:39:19.348Z,35.67
2018-11-21T18:44:06.887Z,41.63
2018-11-21T18:48:52.442Z,38.90
2018-11-21T18:53:34.626Z,38.40
2018-11-21T18:58:41.935Z,35.27
2018-11-21T19:03:25.859Z,40.77
